sensor_id;sensor_type;location;lat;lon;timestamp;pressure;altitude;pressure_sealevel;temperature;humidity
17309;BME280;8772;42.804;23.426;2022-11-28T00:00:12;74960.72;;;-140.58;100.00
17309;BME280;8772;42.804;23.426;2022-11-28T00:02:39;74954.56;;;-140.58;100.00
17309;BME280;8772;42.804;23.426;2022-11-28T00:05:09;74960.72;;;-140.58;100.00
17309;BME280;8772;42.804;23.426;2022-11-28T00:07:36;74956.59;;;-140.58;100.00
17309;BME280;8772;42.804;23.426;2022-11-28T00:10:03;74958.66;;;-140.58;100.00
17309;BME280;8772;42.804;23.426;2022-11-28T00:12:30;74958.66;;;-140.58;100.00
17309;BME280;8772;42.804;23.426;2022-11-28T00:14:56;74956.59;;;-140.58;100.00
17309;BME280;8772;42.804;23.426;2022-11-28T00:17:25;74958.66;;;-140.58;100.00
17309;BME280;8772;42.804;23.426;2022-11-28T00:19:51;74960.72;;;-140.58;100.00
17309;BME280;8772;42.804;23.426;2022-11-28T00:22:18;74970.97;;;-140.58;100.00
17309;BME280;8772;42.804;23.426;2022-11-28T00:24:45;74975.06;;;-140.58;100.00
17309;BME280;8772;42.804;23.426;2022-11-28T00:27:12;74987.38;;;-140.58;100.00
17309;BME280;8772;42.804;23.426;2022-11-28T00:29:39;74987.38;;;-140.58;100.00
17309;BME280;8772;42.804;23.426;2022-11-28T00:32:06;74993.53;;;-140.58;100.00
17309;BME280;8772;42.804;23.426;2022-11-28T00:34:34;74987.38;;;-140.58;100.00
17309;BME280;8772;42.804;23.426;2022-11-28T00:37:01;74987.38;;;-140.58;100.00
17309;BME280;8772;42.804;23.426;2022-11-28T00:39:28;74995.59;;;-140.58;100.00
17309;BME280;8772;42.804;23.426;2022-11-28T00:41:55;74987.38;;;-140.58;100.00
17309;BME280;8772;42.804;23.426;2022-11-28T00:44:22;74991.50;;;-140.58;100.00
17309;BME280;8772;42.804;23.426;2022-11-28T00:46:49;75003.81;;;-140.58;100.00
17309;BME280;8772;42.804;23.426;2022-11-28T00:49:16;75020.22;;;-140.58;100.00
17309;BME280;8772;42.804;23.426;2022-11-28T00:51:46;75007.91;;;-140.58;100.00
17309;BME280;8772;42.804;23.426;2022-11-28T00:54:13;75012.00;;;-140.58;100.00
17309;BME280;8772;42.804;23.426;2022-11-28T00:56:40;75032.53;;;-140.58;100.00
17309;BME280;8772;42.804;23.426;2022-11-28T00:59:07;75024.31;;;-140.58;100.00
17309;BME280;8772;42.804;23.426;2022-11-28T01:01:36;75036.66;;;-140.58;100.00
17309;BME280;8772;42.804;23.426;2022-11-28T01:07:26;75051.00;;;-140.58;100.00
17309;BME280;8772;42.804;23.426;2022-11-28T01:09:53;75069.47;;;-140.58;100.00
17309;BME280;8772;42.804;23.426;2022-11-28T01:12:20;75055.13;;;-140.58;100.00
17309;BME280;8772;42.804;23.426;2022-11-28T01:14:47;75073.56;;;-140.58;100.00
17309;BME280;8772;42.804;23.426;2022-11-28T01:17:13;75077.69;;;-140.58;100.00
17309;BME280;8772;42.804;23.426;2022-11-28T01:19:40;75085.91;;;-140.58;100.00
17309;BME280;8772;42.804;23.426;2022-11-28T01:22:07;75075.63;;;-140.58;100.00
17309;BME280;8772;42.804;23.426;2022-11-28T01:24:35;75061.28;;;-140.58;100.00
17309;BME280;8772;42.804;23.426;2022-11-28T01:27:02;75081.78;;;-140.58;100.00
17309;BME280;8772;42.804;23.426;2022-11-28T01:29:29;75087.94;;;-140.58;100.00
17309;BME280;8772;42.804;23.426;2022-11-28T01:31:56;75071.53;;;-140.58;100.00
17309;BME280;8772;42.804;23.426;2022-11-28T01:34:23;75069.47;;;-140.58;100.00
17309;BME280;8772;42.804;23.426;2022-11-28T01:36:49;75081.78;;;-140.58;100.00
17309;BME280;8772;42.804;23.426;2022-11-28T01:39:16;75081.78;;;-140.58;100.00
17309;BME280;8772;42.804;23.426;2022-11-28T01:41:44;75079.75;;;-140.58;100.00
17309;BME280;8772;42.804;23.426;2022-11-28T01:47:11;75057.16;;;-140.58;100.00
17309;BME280;8772;42.804;23.426;2022-11-28T01:49:39;75087.94;;;-140.58;100.00
17309;BME280;8772;42.804;23.426;2022-11-28T01:52:10;75090.00;;;-140.58;100.00
17309;BME280;8772;42.804;23.426;2022-11-28T01:54:39;75081.78;;;-140.58;100.00
17309;BME280;8772;42.804;23.426;2022-11-28T01:57:11;75077.69;;;-140.58;100.00
17309;BME280;8772;42.804;23.426;2022-11-28T01:59:42;75061.28;;;-140.58;100.00
17309;BME280;8772;42.804;23.426;2022-11-28T02:02:14;75061.28;;;-140.58;100.00
17309;BME280;8772;42.804;23.426;2022-11-28T02:04:44;75055.13;;;-140.58;100.00
17309;BME280;8772;42.804;23.426;2022-11-28T02:07:12;75055.13;;;-140.58;100.00
17309;BME280;8772;42.804;23.426;2022-11-28T02:09:39;75061.28;;;-140.58;100.00
17309;BME280;8772;42.804;23.426;2022-11-28T02:12:18;75065.38;;;-140.58;100.00
17309;BME280;8772;42.804;23.426;2022-11-28T02:15:21;75069.47;;;-140.58;100.00
17309;BME280;8772;42.804;23.426;2022-11-28T02:18:07;75044.84;;;-140.58;100.00
17309;BME280;8772;42.804;23.426;2022-11-28T02:21:12;75042.78;;;-140.58;100.00
17309;BME280;8772;42.804;23.426;2022-11-28T02:24:07;75048.94;;;-140.58;100.00
17309;BME280;8772;42.804;23.426;2022-11-28T02:27:04;75057.16;;;-140.58;100.00
17309;BME280;8772;42.804;23.426;2022-11-28T02:29:54;75081.78;;;-140.58;100.00
17309;BME280;8772;42.804;23.426;2022-11-28T02:32:41;75073.56;;;-140.58;100.00
17309;BME280;8772;42.804;23.426;2022-11-28T02:35:14;75067.44;;;-140.58;100.00
17309;BME280;8772;42.804;23.426;2022-11-28T02:37:51;75055.13;;;-140.58;100.00
17309;BME280;8772;42.804;23.426;2022-11-28T02:40:25;75069.47;;;-140.58;100.00
17309;BME280;8772;42.804;23.426;2022-11-28T02:43:01;75065.38;;;-140.58;100.00
17309;BME280;8772;42.804;23.426;2022-11-28T02:45:36;75067.44;;;-140.58;100.00
17309;BME280;8772;42.804;23.426;2022-11-28T02:48:11;75081.78;;;-140.58;100.00
17309;BME280;8772;42.804;23.426;2022-11-28T02:50:44;75092.06;;;-140.58;100.00
17309;BME280;8772;42.804;23.426;2022-11-28T02:53:19;75087.94;;;-140.58;100.00
17309;BME280;8772;42.804;23.426;2022-11-28T02:55:48;75083.84;;;-140.58;100.00
17309;BME280;8772;42.804;23.426;2022-11-28T02:58:17;75102.31;;;-140.58;100.00
17309;BME280;8772;42.804;23.426;2022-11-28T03:00:45;75094.09;;;-140.58;100.00
17309;BME280;8772;42.804;23.426;2022-11-28T03:03:29;75116.69;;;-140.58;100.00
17309;BME280;8772;42.804;23.426;2022-11-28T03:06:05;75098.22;;;-140.58;100.00
17309;BME280;8772;42.804;23.426;2022-11-28T03:08:50;75102.31;;;-140.58;100.00
17309;BME280;8772;42.804;23.426;2022-11-28T03:11:24;75110.53;;;-140.58;100.00
17309;BME280;8772;42.804;23.426;2022-11-28T03:14:00;75098.22;;;-140.58;100.00
17309;BME280;8772;42.804;23.426;2022-11-28T03:16:36;75104.38;;;-140.58;100.00
17309;BME280;8772;42.804;23.426;2022-11-28T03:19:14;75098.22;;;-140.58;100.00
17309;BME280;8772;42.804;23.426;2022-11-28T03:21:45;75090.00;;;-140.58;100.00
17309;BME280;8772;42.804;23.426;2022-11-28T03:24:16;75090.00;;;-140.58;100.00
17309;BME280;8772;42.804;23.426;2022-11-28T03:26:50;75083.84;;;-140.58;100.00
17309;BME280;8772;42.804;23.426;2022-11-28T03:29:21;75085.91;;;-140.58;100.00
17309;BME280;8772;42.804;23.426;2022-11-28T03:31:53;75079.75;;;-140.58;100.00
17309;BME280;8772;42.804;23.426;2022-11-28T03:34:27;75077.69;;;-140.58;100.00
17309;BME280;8772;42.804;23.426;2022-11-28T03:37:00;75075.63;;;-140.58;100.00
17309;BME280;8772;42.804;23.426;2022-11-28T03:39:32;75077.69;;;-140.58;100.00
17309;BME280;8772;42.804;23.426;2022-11-28T03:42:04;75071.53;;;-140.58;100.00
17309;BME280;8772;42.804;23.426;2022-11-28T03:44:37;75069.47;;;-140.58;100.00
17309;BME280;8772;42.804;23.426;2022-11-28T03:47:06;75067.44;;;-140.58;100.00
17309;BME280;8772;42.804;23.426;2022-11-28T03:49:38;75059.22;;;-140.58;100.00
17309;BME280;8772;42.804;23.426;2022-11-28T03:52:07;75057.16;;;-140.58;100.00
17309;BME280;8772;42.804;23.426;2022-11-28T03:54:41;75053.06;;;-140.58;100.00
17309;BME280;8772;42.804;23.426;2022-11-28T03:57:13;75069.47;;;-140.58;100.00
17309;BME280;8772;42.804;23.426;2022-11-28T03:59:44;75053.06;;;-140.58;100.00
17309;BME280;8772;42.804;23.426;2022-11-28T04:02:18;75044.84;;;-140.58;100.00
17309;BME280;8772;42.804;23.426;2022-11-28T04:04:53;75024.31;;;-140.58;100.00
17309;BME280;8772;42.804;23.426;2022-11-28T04:07:26;75016.13;;;-140.58;100.00
17309;BME280;8772;42.804;23.426;2022-11-28T04:10:00;75028.44;;;-140.58;100.00
17309;BME280;8772;42.804;23.426;2022-11-28T04:12:36;75028.44;;;-140.58;100.00
17309;BME280;8772;42.804;23.426;2022-11-28T04:15:08;75040.75;;;-140.58;100.00
17309;BME280;8772;42.804;23.426;2022-11-28T04:17:45;75038.69;;;-140.58;100.00
17309;BME280;8772;42.804;23.426;2022-11-28T04:20:18;75048.94;;;-140.58;100.00
17309;BME280;8772;42.804;23.426;2022-11-28T04:22:54;75044.84;;;-140.58;100.00
17309;BME280;8772;42.804;23.426;2022-11-28T04:25:24;75061.28;;;-140.58;100.00
17309;BME280;8772;42.804;23.426;2022-11-28T04:27:55;75057.16;;;-140.58;100.00
17309;BME280;8772;42.804;23.426;2022-11-28T04:30:23;75069.47;;;-140.58;100.00
17309;BME280;8772;42.804;23.426;2022-11-28T04:32:53;75051.00;;;-140.58;100.00
17309;BME280;8772;42.804;23.426;2022-11-28T04:35:25;75081.78;;;-140.58;100.00
17309;BME280;8772;42.804;23.426;2022-11-28T04:37:55;75057.16;;;-140.58;100.00
17309;BME280;8772;42.804;23.426;2022-11-28T04:40:23;75053.06;;;-140.58;100.00
17309;BME280;8772;42.804;23.426;2022-11-28T04:42:56;75053.06;;;-140.58;100.00
17309;BME280;8772;42.804;23.426;2022-11-28T04:45:26;75040.75;;;-140.58;100.00
17309;BME280;8772;42.804;23.426;2022-11-28T04:47:55;75040.75;;;-140.58;100.00
17309;BME280;8772;42.804;23.426;2022-11-28T04:50:28;75044.84;;;-140.58;100.00
17309;BME280;8772;42.804;23.426;2022-11-28T04:53:00;75053.06;;;-140.58;100.00
17309;BME280;8772;42.804;23.426;2022-11-28T04:55:34;75042.78;;;-140.58;100.00
17309;BME280;8772;42.804;23.426;2022-11-28T04:58:08;75055.13;;;-140.58;100.00
17309;BME280;8772;42.804;23.426;2022-11-28T05:00:37;75053.06;;;-140.58;100.00
17309;BME280;8772;42.804;23.426;2022-11-28T05:03:05;75057.16;;;-140.58;100.00
17309;BME280;8772;42.804;23.426;2022-11-28T05:05:43;75057.16;;;-140.58;100.00
17309;BME280;8772;42.804;23.426;2022-11-28T05:08:10;75046.91;;;-140.58;100.00
17309;BME280;8772;42.804;23.426;2022-11-28T05:10:37;75042.78;;;-140.58;100.00
17309;BME280;8772;42.804;23.426;2022-11-28T05:13:05;75040.75;;;-140.58;100.00
17309;BME280;8772;42.804;23.426;2022-11-28T05:15:33;75040.75;;;-140.58;100.00
17309;BME280;8772;42.804;23.426;2022-11-28T05:17:59;75040.75;;;-140.58;100.00
17309;BME280;8772;42.804;23.426;2022-11-28T05:20:27;75042.78;;;-140.58;100.00
17309;BME280;8772;42.804;23.426;2022-11-28T05:22:55;75040.75;;;-140.58;100.00
17309;BME280;8772;42.804;23.426;2022-11-28T05:25:22;75065.38;;;-140.58;100.00
17309;BME280;8772;42.804;23.426;2022-11-28T05:27:49;75046.91;;;-140.58;100.00
17309;BME280;8772;42.804;23.426;2022-11-28T05:30:16;75048.94;;;-140.58;100.00
17309;BME280;8772;42.804;23.426;2022-11-28T05:32:43;75075.63;;;-140.58;100.00
17309;BME280;8772;42.804;23.426;2022-11-28T05:35:10;75081.78;;;-140.58;100.00
17309;BME280;8772;42.804;23.426;2022-11-28T05:37:37;75069.47;;;-140.58;100.00
17309;BME280;8772;42.804;23.426;2022-11-28T05:40:06;75048.94;;;-140.58;100.00
17309;BME280;8772;42.804;23.426;2022-11-28T05:42:34;75044.84;;;-140.58;100.00
17309;BME280;8772;42.804;23.426;2022-11-28T05:45:02;75040.75;;;-140.58;100.00
17309;BME280;8772;42.804;23.426;2022-11-28T05:47:30;75036.66;;;-140.58;100.00
17309;BME280;8772;42.804;23.426;2022-11-28T05:49:57;75059.22;;;-140.58;100.00
17309;BME280;8772;42.804;23.426;2022-11-28T05:52:24;75040.75;;;-140.58;100.00
17309;BME280;8772;42.804;23.426;2022-11-28T05:54:54;75032.53;;;-140.58;100.00
17309;BME280;8772;42.804;23.426;2022-11-28T05:57:22;75024.31;;;-140.58;100.00
17309;BME280;8772;42.804;23.426;2022-11-28T05:59:49;75009.97;;;-140.58;100.00
17309;BME280;8772;42.804;23.426;2022-11-28T06:02:16;75003.81;;;-140.58;100.00
17309;BME280;8772;42.804;23.426;2022-11-28T06:04:43;75003.81;;;-140.58;100.00
17309;BME280;8772;42.804;23.426;2022-11-28T06:07:09;74995.59;;;-140.58;100.00
17309;BME280;8772;42.804;23.426;2022-11-28T06:09:36;74991.50;;;-140.58;100.00
17309;BME280;8772;42.804;23.426;2022-11-28T06:12:03;74997.66;;;-140.58;100.00
17309;BME280;8772;42.804;23.426;2022-11-28T06:14:32;74991.50;;;-140.58;100.00
17309;BME280;8772;42.804;23.426;2022-11-28T06:16:59;74987.38;;;-140.58;100.00
17309;BME280;8772;42.804;23.426;2022-11-28T06:19:26;74995.59;;;-140.58;100.00
17309;BME280;8772;42.804;23.426;2022-11-28T06:21:53;74987.38;;;-140.58;100.00
17309;BME280;8772;42.804;23.426;2022-11-28T06:24:20;74987.38;;;-140.58;100.00
17309;BME280;8772;42.804;23.426;2022-11-28T06:26:47;75001.75;;;-140.58;100.00
17309;BME280;8772;42.804;23.426;2022-11-28T06:29:14;74995.59;;;-140.58;100.00
17309;BME280;8772;42.804;23.426;2022-11-28T06:31:42;74991.50;;;-140.58;100.00
17309;BME280;8772;42.804;23.426;2022-11-28T06:34:10;74987.38;;;-140.58;100.00
17309;BME280;8772;42.804;23.426;2022-11-28T06:36:37;74999.69;;;-140.58;100.00
17309;BME280;8772;42.804;23.426;2022-11-28T06:39:04;74989.44;;;-140.58;100.00
17309;BME280;8772;42.804;23.426;2022-11-28T06:41:31;75001.75;;;-140.58;100.00
17309;BME280;8772;42.804;23.426;2022-11-28T06:43:58;74987.38;;;-140.58;100.00
17309;BME280;8772;42.804;23.426;2022-11-28T06:46:25;74993.53;;;-140.58;100.00
17309;BME280;8772;42.804;23.426;2022-11-28T06:48:54;74983.28;;;-140.58;100.00
17309;BME280;8772;42.804;23.426;2022-11-28T06:51:21;74983.28;;;-140.58;100.00
17309;BME280;8772;42.804;23.426;2022-11-28T06:53:49;74985.34;;;-140.58;100.00
17309;BME280;8772;42.804;23.426;2022-11-28T06:56:18;74983.28;;;-140.58;100.00
17309;BME280;8772;42.804;23.426;2022-11-28T06:58:45;75003.81;;;-140.58;100.00
17309;BME280;8772;42.804;23.426;2022-11-28T07:01:13;75028.44;;;-140.58;100.00
17309;BME280;8772;42.804;23.426;2022-11-28T07:03:41;75012.00;;;-140.58;100.00
17309;BME280;8772;42.804;23.426;2022-11-28T07:06:11;74989.44;;;-140.58;100.00
17309;BME280;8772;42.804;23.426;2022-11-28T07:08:39;74993.53;;;-140.58;100.00
17309;BME280;8772;42.804;23.426;2022-11-28T07:11:07;74973.03;;;-140.58;100.00
17309;BME280;8772;42.804;23.426;2022-11-28T07:13:35;74991.50;;;-140.58;100.00
17309;BME280;8772;42.804;23.426;2022-11-28T07:16:02;74991.50;;;-140.58;100.00
17309;BME280;8772;42.804;23.426;2022-11-28T07:18:29;75001.75;;;-140.58;100.00
17309;BME280;8772;42.804;23.426;2022-11-28T07:20:55;75024.31;;;-140.58;100.00
17309;BME280;8772;42.804;23.426;2022-11-28T07:23:24;74991.50;;;-140.58;100.00
17309;BME280;8772;42.804;23.426;2022-11-28T07:25:56;74975.06;;;-140.58;100.00
17309;BME280;8772;42.804;23.426;2022-11-28T07:28:24;74983.28;;;-140.58;100.00
17309;BME280;8772;42.804;23.426;2022-11-28T07:30:58;74979.19;;;-140.58;100.00
17309;BME280;8772;42.804;23.426;2022-11-28T07:33:26;74993.53;;;-140.58;100.00
17309;BME280;8772;42.804;23.426;2022-11-28T07:35:53;74991.50;;;-140.58;100.00
17309;BME280;8772;42.804;23.426;2022-11-28T07:38:20;75016.13;;;-140.58;100.00
17309;BME280;8772;42.804;23.426;2022-11-28T07:40:48;74991.50;;;-140.58;100.00
17309;BME280;8772;42.804;23.426;2022-11-28T07:43:15;74983.28;;;-140.58;100.00
17309;BME280;8772;42.804;23.426;2022-11-28T07:45:42;74983.28;;;-140.58;100.00
17309;BME280;8772;42.804;23.426;2022-11-28T07:48:10;74987.38;;;-140.58;100.00
17309;BME280;8772;42.804;23.426;2022-11-28T07:50:38;74975.06;;;-140.58;100.00
17309;BME280;8772;42.804;23.426;2022-11-28T07:53:05;74987.38;;;-140.58;100.00
17309;BME280;8772;42.804;23.426;2022-11-28T07:55:34;74991.50;;;-140.58;100.00
17309;BME280;8772;42.804;23.426;2022-11-28T07:58:03;74977.13;;;-140.58;100.00
17309;BME280;8772;42.804;23.426;2022-11-28T08:00:30;74962.75;;;-140.58;100.00
17309;BME280;8772;42.804;23.426;2022-11-28T08:02:57;74968.91;;;-140.58;100.00
17309;BME280;8772;42.804;23.426;2022-11-28T08:05:24;74952.50;;;-140.58;100.00
17309;BME280;8772;42.804;23.426;2022-11-28T08:07:51;74950.44;;;-140.58;100.00
17309;BME280;8772;42.804;23.426;2022-11-28T08:10:18;74962.75;;;-140.58;100.00
17309;BME280;8772;42.804;23.426;2022-11-28T08:12:45;74934.03;;;-140.58;100.00
17309;BME280;8772;42.804;23.426;2022-11-28T08:15:14;74925.81;;;-140.58;100.00
17309;BME280;8772;42.804;23.426;2022-11-28T08:17:41;74913.50;;;-140.58;100.00
17309;BME280;8772;42.804;23.426;2022-11-28T08:20:08;74927.88;;;-140.58;100.00
17309;BME280;8772;42.804;23.426;2022-11-28T08:22:35;74944.28;;;-140.58;100.00
17309;BME280;8772;42.804;23.426;2022-11-28T08:25:02;74923.78;;;-140.58;100.00
17309;BME280;8772;42.804;23.426;2022-11-28T08:27:30;74929.94;;;-140.58;100.00
17309;BME280;8772;42.804;23.426;2022-11-28T08:29:57;74915.56;;;-140.58;100.00
17309;BME280;8772;42.804;23.426;2022-11-28T08:32:27;74893.00;;;-140.58;100.00
17309;BME280;8772;42.804;23.426;2022-11-28T08:34:54;74913.50;;;-140.58;100.00
17309;BME280;8772;42.804;23.426;2022-11-28T08:37:21;74909.41;;;-140.58;100.00
17309;BME280;8772;42.804;23.426;2022-11-28T08:39:48;74886.84;;;-140.58;100.00
17309;BME280;8772;42.804;23.426;2022-11-28T08:42:15;74901.19;;;-140.58;100.00
17309;BME280;8772;42.804;23.426;2022-11-28T08:44:42;74890.94;;;-140.58;100.00
17309;BME280;8772;42.804;23.426;2022-11-28T08:47:12;74897.09;;;-140.58;100.00
17309;BME280;8772;42.804;23.426;2022-11-28T08:49:41;74878.63;;;-140.58;100.00
17309;BME280;8772;42.804;23.426;2022-11-28T08:52:08;74893.00;;;-140.58;100.00
17309;BME280;8772;42.804;23.426;2022-11-28T08:54:35;74874.53;;;-140.58;100.00
17309;BME280;8772;42.804;23.426;2022-11-28T08:57:02;74872.47;;;-140.58;100.00
17309;BME280;8772;42.804;23.426;2022-11-28T08:59:28;74890.94;;;-140.58;100.00
17309;BME280;8772;42.804;23.426;2022-11-28T09:01:55;74880.69;;;-140.58;100.00
17309;BME280;8772;42.804;23.426;2022-11-28T09:04:22;74884.78;;;-140.58;100.00
17309;BME280;8772;42.804;23.426;2022-11-28T09:06:51;74872.47;;;-140.58;100.00
17309;BME280;8772;42.804;23.426;2022-11-28T09:09:18;74868.38;;;-140.58;100.00
17309;BME280;8772;42.804;23.426;2022-11-28T09:11:45;74864.25;;;-140.58;100.00
17309;BME280;8772;42.804;23.426;2022-11-28T09:14:12;74851.94;;;-140.58;100.00
17309;BME280;8772;42.804;23.426;2022-11-28T09:16:39;74839.63;;;-140.58;100.00
17309;BME280;8772;42.804;23.426;2022-11-28T09:19:06;74839.63;;;-140.58;100.00
17309;BME280;8772;42.804;23.426;2022-11-28T09:21:35;74835.53;;;-140.58;100.00
17309;BME280;8772;42.804;23.426;2022-11-28T09:24:04;74821.16;;;-140.58;100.00
17309;BME280;8772;42.804;23.426;2022-11-28T09:26:31;74827.31;;;-140.58;100.00
17309;BME280;8772;42.804;23.426;2022-11-28T09:28:58;74819.13;;;-140.58;100.00
17309;BME280;8772;42.804;23.426;2022-11-28T09:31:25;74806.81;;;-140.58;100.00
17309;BME280;8772;42.804;23.426;2022-11-28T09:33:53;74821.16;;;-140.58;100.00
17309;BME280;8772;42.804;23.426;2022-11-28T09:36:21;74831.44;;;-140.58;100.00
17309;BME280;8772;42.804;23.426;2022-11-28T09:38:49;74839.63;;;-140.58;100.00
17309;BME280;8772;42.804;23.426;2022-11-28T09:41:30;74843.75;;;-140.58;100.00
17309;BME280;8772;42.804;23.426;2022-11-28T09:44:00;74827.31;;;-140.58;100.00
17309;BME280;8772;42.804;23.426;2022-11-28T09:46:32;74839.63;;;-140.58;100.00
17309;BME280;8772;42.804;23.426;2022-11-28T09:49:03;74823.22;;;-140.58;100.00
17309;BME280;8772;42.804;23.426;2022-11-28T09:51:44;74837.59;;;-140.58;100.00
17309;BME280;8772;42.804;23.426;2022-11-28T09:54:17;74843.75;;;-140.58;100.00
17309;BME280;8772;42.804;23.426;2022-11-28T09:56:48;74831.44;;;-140.58;100.00
17309;BME280;8772;42.804;23.426;2022-11-28T09:59:24;74819.13;;;-140.58;100.00
17309;BME280;8772;42.804;23.426;2022-11-28T10:02:01;74831.44;;;-140.58;100.00
17309;BME280;8772;42.804;23.426;2022-11-28T10:04:38;74835.53;;;-140.58;100.00
17309;BME280;8772;42.804;23.426;2022-11-28T10:07:12;74825.28;;;-140.58;100.00
17309;BME280;8772;42.804;23.426;2022-11-28T10:09:46;74823.22;;;-140.58;100.00
17309;BME280;8772;42.804;23.426;2022-11-28T10:12:29;74835.53;;;-140.58;100.00
17309;BME280;8772;42.804;23.426;2022-11-28T10:15:14;74819.13;;;-140.58;100.00
17309;BME280;8772;42.804;23.426;2022-11-28T10:17:55;74827.31;;;-140.58;100.00
17309;BME280;8772;42.804;23.426;2022-11-28T10:20:27;74849.91;;;-140.58;100.00
17309;BME280;8772;42.804;23.426;2022-11-28T10:23:00;74831.44;;;-140.58;100.00
17309;BME280;8772;42.804;23.426;2022-11-28T10:25:32;74821.16;;;-140.58;100.00
17309;BME280;8772;42.804;23.426;2022-11-28T10:28:08;74815.00;;;-140.58;100.00
17309;BME280;8772;42.804;23.426;2022-11-28T10:30:41;74798.59;;;-140.58;100.00
17309;BME280;8772;42.804;23.426;2022-11-28T10:33:17;74808.84;;;-140.58;100.00
17309;BME280;8772;42.804;23.426;2022-11-28T10:35:53;74806.81;;;-140.58;100.00
17309;BME280;8772;42.804;23.426;2022-11-28T10:38:24;74810.91;;;-140.58;100.00
17309;BME280;8772;42.804;23.426;2022-11-28T10:40:57;74794.50;;;-140.58;100.00
17309;BME280;8772;42.804;23.426;2022-11-28T10:43:36;74792.44;;;-140.58;100.00
17309;BME280;8772;42.804;23.426;2022-11-28T10:46:28;74794.50;;;-140.58;100.00
17309;BME280;8772;42.804;23.426;2022-11-28T10:49:05;74794.50;;;-140.58;100.00
17309;BME280;8772;42.804;23.426;2022-11-28T10:51:45;74798.59;;;-140.58;100.00
17309;BME280;8772;42.804;23.426;2022-11-28T10:54:24;74782.19;;;-140.58;100.00
17309;BME280;8772;42.804;23.426;2022-11-28T10:57:04;74782.19;;;-140.58;100.00
17309;BME280;8772;42.804;23.426;2022-11-28T10:59:43;74776.03;;;-140.58;100.00
17309;BME280;8772;42.804;23.426;2022-11-28T11:02:32;74763.72;;;-140.58;100.00
17309;BME280;8772;42.804;23.426;2022-11-28T11:05:02;74761.66;;;-140.58;100.00
17309;BME280;8772;42.804;23.426;2022-11-28T11:07:31;74753.44;;;-140.58;100.00
17309;BME280;8772;42.804;23.426;2022-11-28T11:10:11;74755.50;;;-140.58;100.00
17309;BME280;8772;42.804;23.426;2022-11-28T11:12:41;74737.03;;;-140.58;100.00
17309;BME280;8772;42.804;23.426;2022-11-28T11:15:22;74773.97;;;-140.58;100.00
17309;BME280;8772;42.804;23.426;2022-11-28T11:17:51;74757.56;;;-140.58;100.00
17309;BME280;8772;42.804;23.426;2022-11-28T11:20:32;74765.75;;;-140.58;100.00
17309;BME280;8772;42.804;23.426;2022-11-28T11:23:04;74792.44;;;-140.58;100.00
17309;BME280;8772;42.804;23.426;2022-11-28T11:25:45;74771.91;;;-140.58;100.00
17309;BME280;8772;42.804;23.426;2022-11-28T11:28:38;74749.34;;;-140.58;100.00
17309;BME280;8772;42.804;23.426;2022-11-28T11:31:25;74745.25;;;-140.58;100.00
17309;BME280;8772;42.804;23.426;2022-11-28T11:34:01;74732.94;;;-140.58;100.00
17309;BME280;8772;42.804;23.426;2022-11-28T11:36:31;74734.97;;;-140.58;100.00
17309;BME280;8772;42.804;23.426;2022-11-28T11:39:23;74706.25;;;-140.58;100.00
17309;BME280;8772;42.804;23.426;2022-11-28T11:42:09;74700.09;;;-140.58;100.00
17309;BME280;8772;42.804;23.426;2022-11-28T11:44:37;74696.00;;;-140.58;100.00
17309;BME280;8772;42.804;23.426;2022-11-28T11:47:08;74696.00;;;-140.58;100.00
17309;BME280;8772;42.804;23.426;2022-11-28T11:49:38;74679.59;;;-140.58;100.00
17309;BME280;8772;42.804;23.426;2022-11-28T11:52:14;74671.38;;;-140.58;100.00
17309;BME280;8772;42.804;23.426;2022-11-28T11:54:54;74669.31;;;-140.58;100.00
17309;BME280;8772;42.804;23.426;2022-11-28T11:57:24;74659.06;;;-140.58;100.00
17309;BME280;8772;42.804;23.426;2022-11-28T11:59:54;74667.28;;;-140.58;100.00
17309;BME280;8772;42.804;23.426;2022-11-28T12:02:29;74673.44;;;-140.58;100.00
17309;BME280;8772;42.804;23.426;2022-11-28T12:05:01;74673.44;;;-140.58;100.00
17309;BME280;8772;42.804;23.426;2022-11-28T12:07:33;74669.31;;;-140.58;100.00
17309;BME280;8772;42.804;23.426;2022-11-28T12:10:05;74654.97;;;-140.58;100.00
17309;BME280;8772;42.804;23.426;2022-11-28T12:12:35;74657.00;;;-140.58;100.00
17309;BME280;8772;42.804;23.426;2022-11-28T12:15:07;74659.06;;;-140.58;100.00
17309;BME280;8772;42.804;23.426;2022-11-28T12:17:47;74675.47;;;-140.58;100.00
17309;BME280;8772;42.804;23.426;2022-11-28T12:20:31;74683.69;;;-140.58;100.00
17309;BME280;8772;42.804;23.426;2022-11-28T12:23:14;74671.38;;;-140.58;100.00
17309;BME280;8772;42.804;23.426;2022-11-28T12:25:50;74675.47;;;-140.58;100.00
17309;BME280;8772;42.804;23.426;2022-11-28T12:28:28;74673.44;;;-140.58;100.00
17309;BME280;8772;42.804;23.426;2022-11-28T12:31:09;74693.94;;;-140.58;100.00
17309;BME280;8772;42.804;23.426;2022-11-28T12:33:49;74691.91;;;-140.58;100.00
17309;BME280;8772;42.804;23.426;2022-11-28T12:36:27;74691.91;;;-140.58;100.00
17309;BME280;8772;42.804;23.426;2022-11-28T12:39:07;74704.19;;;-140.58;100.00
17309;BME280;8772;42.804;23.426;2022-11-28T12:42:01;74700.09;;;-140.58;100.00
17309;BME280;8772;42.804;23.426;2022-11-28T12:44:48;74708.31;;;-140.58;100.00
17309;BME280;8772;42.804;23.426;2022-11-28T12:47:27;74685.72;;;-140.58;100.00
17309;BME280;8772;42.804;23.426;2022-11-28T12:50:08;74679.59;;;-140.58;100.00
17309;BME280;8772;42.804;23.426;2022-11-28T12:52:46;74689.84;;;-140.58;100.00
17309;BME280;8772;42.804;23.426;2022-11-28T12:55:22;74704.19;;;-140.58;100.00
17309;BME280;8772;42.804;23.426;2022-11-28T12:57:56;74712.41;;;-140.58;100.00